Sagar Sampada — VWXS — position and weather

sailwx.info

Track history (hours):
 
Tides and Currents Weather Stations Pressure Air Temp Water Temp Dewpoint Dewpoint Depression Visibility Wind Speed Wind Dir Waves Ship Positions

Oceanographic research ship Sagar Sampada (India)

Detailed information on ship capabilities available from University of Delaware's Ocean Information Center.

Last reported at 2018-Dec-10 03:03 UTC. Time now 2018-Dec-12 03:19 UTC.
Position N 09°48' E 075°36'.

Type: Other ship. MMSI: 419323000.

Wind from 310 at 16 knots

Barometer 1010.9 mb
Air temperature 28.4 ° C

Date/timePositionNaut miles runAvg speedWind from/ knotsBaromVisibWave heightAir tempDewpointWater temp
2018-Dec-10 03:03N 09°48' E 075°36'200 5.5 310 / 161010.9 28.4
2018-Dec-08 14:33N 06°30' E 076°06'22 3.9 110 / 191008.7 29.6
2018-Dec-08 09:03N 06°48' E 076°18'3010.0 300 / 101007.4 29.3
2018-Dec-08 06:03N 07°12' E 076°36'17 2.6 280 / 41010.1 29.0
2018-Dec-07 23:33N 07°24' E 076°48'0 0.0 290 / 211007.4 28.0
2018-Dec-07 21:03N 07°24' E 076°48'13 4.4 250 / 171007.5 28.5
2018-Dec-07 18:03N 07°30' E 077°00'19 6.3 100 / 191009.3 28.9
2018-Dec-07 15:03N 07°48' E 077°06'13 4.5 320 / 141009.1 29.2
2018-Dec-07 12:03N 08°00' E 077°12'6 2.0 030 / 251006.1 29.5
2018-Dec-07 09:03N 08°06' E 077°12'72 8.0 230 / 121006.3 30.4
2018-Dec-07 00:03N 08°54' E 076°18'27 8.9 320 / 211007.0 28.2
2018-Dec-06 21:03N 09°18' E 076°06'25 8.2 330 / 191007.1 27.8
2018-Dec-06 18:03N 09°42' E 076°00'13 4.5 040 / 171008.7 28.5
2018-Dec-06 15:03N 09°54' E 076°06'13 4.4 060 / 141008.9 29.8
2018-Dec-06 12:03N 10°00' E 076°18'0 0.0 150 / 41005.8 32.0
2018-Dec-06 06:03N 10°00' E 076°18'0 0.0 140 1008.9 34.5
2018-Dec-06 03:03N 10°00' E 076°18'0 0.0 290 / 61009.3 28.1
2018-Dec-06 00:03N 10°00' E 076°18'0 0.0 040 / 21007.4 26.6
2018-Dec-05 21:03N 10°00' E 076°18'0 0.0 330 / 21007.5 27.5
2018-Dec-05 18:03N 10°00' E 076°18'0 0.0 160 1009.1 28.7
2018-Dec-05 14:33N 10°00' E 076°18'0 0.0 120 1008.7 29.4
2018-Dec-05 12:03N 10°00' E 076°18'0 0.0 140 / 21006.9 32.1
2018-Dec-05 09:03N 10°00' E 076°18'0 0.0 150 / 41007.0 32.3
2018-Dec-05 05:33N 10°00' E 076°18'0 0.0 300 / 41010.4 30.8
2018-Dec-05 03:03N 10°00' E 076°18'0 0.0 320 / 61010.6 27.5
2018-Dec-04 21:03N 10°00' E 076°18'0 0.0 310 / 41008.2 26.7
2018-Dec-04 18:03N 10°00' E 076°18'0 0.0 280 / 41009.8 27.3
2018-Dec-04 15:03N 10°00' E 076°18'0 0.0 300 / 21009.5 26.6
2018-Dec-04 12:03N 10°00' E 076°18'0 0.0 150 / 21007.2 30.2
2018-Dec-04 09:03N 10°00' E 076°18'0 0.0 130 / 21006.6 33.6
2018-Dec-04 05:33N 10°00' E 076°18'0 0.0 300 / 21009.7 32.7
2018-Dec-03 21:03N 10°00' E 076°18'0 0.0 290 / 41007.5 27.3
2018-Dec-03 18:03N 10°00' E 076°18'0 0.0 300 / 21009.0 28.2
2018-Dec-03 12:03N 10°00' E 076°18'0 0.0 140 / 21006.1 30.6
2018-Dec-03 09:03N 10°00' E 076°18'0 0.0 140 / 21006.2 32.2
2018-Dec-03 06:03N 10°00' E 076°18'0 0.0 240 1008.6 32.6
2018-Dec-02 23:33N 10°00' E 076°18'0 0.0 300 / 41006.8 26.2
2018-Dec-02 21:03N 10°00' E 076°18'0 0.0 320 / 21007.0 27.0
2018-Dec-02 18:03N 10°00' E 076°18'0 0.0 030 / 21008.7 28.1
2018-Dec-02 15:03N 10°00' E 076°18'0 0.0 100 / 21007.5 28.9
2018-Dec-02 12:03N 10°00' E 076°18'0 0.0 150 / 21004.9 31.0
2018-Dec-02 05:33N 10°00' E 076°18'0 0.0 310 / 41008.7 30.8
2018-Dec-02 02:33N 10°00' E 076°18'0 0.0 300 / 61008.7 26.9
2018-Dec-01 23:33N 10°00' E 076°18'0 0.0 300 / 61006.8 26.5
2018-Dec-01 21:03N 10°00' E 076°18'0 0.0 300 / 21006.8 27.6
2018-Dec-01 18:03N 10°00' E 076°18'0 0.0 320 / 21008.3 29.0
2018-Dec-01 15:03N 10°00' E 076°18'0 0.0 060 / 21008.1 29.4
2018-Dec-01 12:03N 10°00' E 076°18'0 0.0 120 / 21005.9 30.6
2018-Dec-01 09:03N 10°00' E 076°18'   150 / 21006.5 33.4
Track history (hours):
 
Tides and Currents Weather Stations Pressure Air Temp Water Temp Dewpoint Dewpoint Depression Visibility Wind Speed Wind Dir Waves Ship Positions

Oceanographic research ship Sagar Sampada (India)

Detailed information on ship capabilities available from University of Delaware's Ocean Information Center.

Last reported at 2018-Dec-10 03:03 UTC. Time now 2018-Dec-12 03:19 UTC.
Position N 09°48' E 075°36'.

Type: Other ship. MMSI: 419323000.

Wind from 310 at 16 knots

Barometer 1010.9 mb
Air temperature 28.4 ° C

Date/timePositionNaut miles runAvg speedWind from/ knotsBaromVisibWave heightAir tempDewpointWater temp
2018-Dec-10 03:03N 09°48' E 075°36'200 5.5 310 / 161010.9 28.4
2018-Dec-08 14:33N 06°30' E 076°06'22 3.9 110 / 191008.7 29.6
2018-Dec-08 09:03N 06°48' E 076°18'3010.0 300 / 101007.4 29.3
2018-Dec-08 06:03N 07°12' E 076°36'17 2.6 280 / 41010.1 29.0
2018-Dec-07 23:33N 07°24' E 076°48'0 0.0 290 / 211007.4 28.0
2018-Dec-07 21:03N 07°24' E 076°48'13 4.4 250 / 171007.5 28.5
2018-Dec-07 18:03N 07°30' E 077°00'19 6.3 100 / 191009.3 28.9
2018-Dec-07 15:03N 07°48' E 077°06'13 4.5 320 / 141009.1 29.2
2018-Dec-07 12:03N 08°00' E 077°12'6 2.0 030 / 251006.1 29.5
2018-Dec-07 09:03N 08°06' E 077°12'72 8.0 230 / 121006.3 30.4
2018-Dec-07 00:03N 08°54' E 076°18'27 8.9 320 / 211007.0 28.2
2018-Dec-06 21:03N 09°18' E 076°06'25 8.2 330 / 191007.1 27.8
2018-Dec-06 18:03N 09°42' E 076°00'13 4.5 040 / 171008.7 28.5
2018-Dec-06 15:03N 09°54' E 076°06'13 4.4 060 / 141008.9 29.8
2018-Dec-06 12:03N 10°00' E 076°18'0 0.0 150 / 41005.8 32.0
2018-Dec-06 06:03N 10°00' E 076°18'0 0.0 140 1008.9 34.5
2018-Dec-06 03:03N 10°00' E 076°18'0 0.0 290 / 61009.3 28.1
2018-Dec-06 00:03N 10°00' E 076°18'0 0.0 040 / 21007.4 26.6
2018-Dec-05 21:03N 10°00' E 076°18'0 0.0 330 / 21007.5 27.5
2018-Dec-05 18:03N 10°00' E 076°18'0 0.0 160 1009.1 28.7
2018-Dec-05 14:33N 10°00' E 076°18'0 0.0 120 1008.7 29.4
2018-Dec-05 12:03N 10°00' E 076°18'0 0.0 140 / 21006.9 32.1
2018-Dec-05 09:03N 10°00' E 076°18'0 0.0 150 / 41007.0 32.3
2018-Dec-05 05:33N 10°00' E 076°18'0 0.0 300 / 41010.4 30.8
2018-Dec-05 03:03N 10°00' E 076°18'0 0.0 320 / 61010.6 27.5
2018-Dec-04 21:03N 10°00' E 076°18'0 0.0 310 / 41008.2 26.7
2018-Dec-04 18:03N 10°00' E 076°18'0 0.0 280 / 41009.8 27.3
2018-Dec-04 15:03N 10°00' E 076°18'0 0.0 300 / 21009.5 26.6
2018-Dec-04 12:03N 10°00' E 076°18'0 0.0 150 / 21007.2 30.2
2018-Dec-04 09:03N 10°00' E 076°18'0 0.0 130 / 21006.6 33.6
2018-Dec-04 05:33N 10°00' E 076°18'0 0.0 300 / 21009.7 32.7
2018-Dec-03 21:03N 10°00' E 076°18'0 0.0 290 / 41007.5 27.3
2018-Dec-03 18:03N 10°00' E 076°18'0 0.0 300 / 21009.0 28.2
2018-Dec-03 12:03N 10°00' E 076°18'0 0.0 140 / 21006.1 30.6
2018-Dec-03 09:03N 10°00' E 076°18'0 0.0 140 / 21006.2 32.2
2018-Dec-03 06:03N 10°00' E 076°18'0 0.0 240 1008.6 32.6
2018-Dec-02 23:33N 10°00' E 076°18'0 0.0 300 / 41006.8 26.2
2018-Dec-02 21:03N 10°00' E 076°18'0 0.0 320 / 21007.0 27.0
2018-Dec-02 18:03N 10°00' E 076°18'0 0.0 030 / 21008.7 28.1
2018-Dec-02 15:03N 10°00' E 076°18'0 0.0 100 / 21007.5 28.9
2018-Dec-02 12:03N 10°00' E 076°18'0 0.0 150 / 21004.9 31.0
2018-Dec-02 05:33N 10°00' E 076°18'0 0.0 310 / 41008.7 30.8
2018-Dec-02 02:33N 10°00' E 076°18'0 0.0 300 / 61008.7 26.9
2018-Dec-01 23:33N 10°00' E 076°18'0 0.0 300 / 61006.8 26.5
2018-Dec-01 21:03N 10°00' E 076°18'0 0.0 300 / 21006.8 27.6
2018-Dec-01 18:03N 10°00' E 076°18'0 0.0 320 / 21008.3 29.0
2018-Dec-01 15:03N 10°00' E 076°18'0 0.0 060 / 21008.1 29.4
2018-Dec-01 12:03N 10°00' E 076°18'0 0.0 120 / 21005.9 30.6
2018-Dec-01 09:03N 10°00' E 076°18'   150 / 21006.5 33.4

Dump ship's entire track history